createdAt,value
2023-01-29T00:00:32.021Z,14.07
2023-01-29T00:03:02.068Z,13.93
2023-01-29T00:05:32.955Z,12.90
2023-01-29T00:08:04.178Z,13.35
2023-01-29T00:10:33.742Z,14.85
2023-01-29T00:13:03.391Z,13.07
2023-01-29T00:15:33.198Z,14.27
2023-01-29T00:18:02.490Z,14.90
2023-01-29T00:20:34.243Z,13.80
2023-01-29T00:23:04.113Z,14.73
2023-01-29T00:25:33.478Z,13.60
2023-01-29T00:28:03.448Z,13.30
2023-01-29T00:30:33.152Z,13.27
2023-01-29T00:33:03.014Z,13.13
2023-01-29T00:35:35.323Z,13.48
2023-01-29T00:38:04.974Z,13.43
2023-01-29T00:40:55.654Z,13.88
2023-01-29T00:43:43.059Z,14.18
2023-01-29T00:46:12.977Z,13.93
2023-01-29T00:48:42.352Z,15.20
2023-01-29T00:51:15.908Z,15.15
2023-01-29T00:53:45.964Z,14.45
2023-01-29T00:56:17.842Z,15.60
2023-01-29T00:58:47.382Z,15.77
2023-01-29T01:01:17.071Z,15.32
2023-01-29T01:03:45.991Z,14.95
2023-01-29T01:06:16.676Z,16.63
2023-01-29T01:09:03.479Z,15.40
2023-01-29T01:11:34.878Z,17.13
2023-01-29T01:14:04.591Z,16.20
2023-01-29T01:16:34.254Z,16.60
2023-01-29T01:19:05.261Z,16.35
2023-01-29T01:21:36.247Z,17.10
2023-01-29T01:24:06.686Z,14.55
2023-01-29T01:26:36.571Z,15.18
2023-01-29T01:29:06.998Z,14.63
2023-01-29T01:31:36.700Z,14.00
2023-01-29T01:34:09.082Z,15.85
2023-01-29T01:36:40.067Z,15.10
2023-01-29T01:39:09.877Z,14.90
2023-01-29T01:41:39.582Z,15.77
2023-01-29T01:44:08.836Z,16.00
2023-01-29T01:46:40.979Z,15.05
2023-01-29T01:49:13.713Z,13.98
2023-01-29T01:51:49.332Z,15.18
2023-01-29T01:54:24.502Z,15.55
2023-01-29T01:57:05.053Z,15.63
2023-01-29T01:59:35.469Z,16.35
2023-01-29T02:02:23.691Z,15.48
2023-01-29T02:05:12.149Z,15.20
2023-01-29T02:08:03.266Z,15.73
2023-01-29T02:10:37.798Z,15.15
2023-01-29T02:13:08.740Z,15.98
2023-01-29T02:15:41.935Z,15.45
2023-01-29T02:18:11.618Z,14.73
2023-01-29T02:20:45.534Z,14.52
2023-01-29T02:23:39.745Z,14.20
2023-01-29T02:26:29.412Z,15.90
2023-01-29T02:29:22.701Z,15.30
2023-01-29T02:32:04.916Z,14.15
2023-01-29T02:35:03.174Z,14.95
2023-01-29T02:37:38.241Z,16.38
2023-01-29T02:40:15.478Z,16.83
2023-01-29T02:42:52.636Z,15.73
2023-01-29T02:45:33.420Z,15.45
2023-01-29T02:48:04.330Z,16.40
2023-01-29T02:50:43.366Z,17.05
2023-01-29T02:53:17.140Z,15.55
2023-01-29T02:55:51.239Z,14.45
2023-01-29T02:58:29.227Z,15.02
2023-01-29T03:01:07.504Z,14.98
2023-01-29T03:03:41.811Z,16.38
2023-01-29T03:06:18.338Z,14.93
2023-01-29T03:08:54.140Z,15.70
2023-01-29T03:11:24.297Z,16.90
2023-01-29T03:14:00.014Z,17.00
2023-01-29T03:16:35.386Z,16.70
2023-01-29T03:19:10.521Z,16.27
2023-01-29T03:21:55.437Z,16.05
2023-01-29T03:24:50.476Z,16.67
2023-01-29T03:27:41.100Z,17.02
2023-01-29T03:30:32.798Z,17.33
2023-01-29T03:33:19.838Z,17.13
2023-01-29T03:35:58.647Z,16.85
2023-01-29T03:38:32.242Z,17.77
2023-01-29T03:41:10.371Z,15.57
2023-01-29T03:43:46.932Z,17.80
2023-01-29T03:46:23.911Z,17.50
2023-01-29T03:49:00.691Z,18.35
2023-01-29T03:51:37.950Z,17.65
2023-01-29T03:54:16.424Z,18.90
2023-01-29T03:56:58.837Z,18.85
2023-01-29T03:59:39.140Z,22.05
2023-01-29T04:02:32.557Z,20.02
2023-01-29T04:05:12.675Z,21.08
2023-01-29T04:07:58.228Z,21.52
2023-01-29T04:10:30.974Z,19.48
2023-01-29T04:13:05.556Z,20.85
2023-01-29T04:15:42.415Z,21.88
2023-01-29T04:18:12.639Z,21.48
2023-01-29T04:21:07.596Z,23.27
2023-01-29T04:23:37.458Z,22.30
2023-01-29T04:26:28.791Z,22.05
2023-01-29T04:29:21.779Z,22.52
2023-01-29T04:32:06.383Z,20.98
2023-01-29T04:34:46.663Z,22.88
2023-01-29T04:37:28.353Z,22.00
2023-01-29T04:40:04.626Z,24.00
2023-01-29T04:42:44.197Z,23.85
2023-01-29T04:45:21.837Z,22.38
2023-01-29T04:48:05.197Z,21.98
2023-01-29T04:50:39.937Z,20.63
2023-01-29T04:53:19.939Z,21.80
2023-01-29T04:55:53.386Z,21.70
2023-01-29T05:01:01.306Z,21.13
2023-01-29T05:03:33.218Z,21.48
2023-01-29T05:06:04.665Z,22.63
2023-01-29T05:08:39.228Z,20.35
2023-01-29T05:11:09.805Z,20.50
2023-01-29T05:13:43.503Z,21.77
2023-01-29T05:16:18.927Z,20.90
2023-01-29T05:18:50.916Z,21.88
2023-01-29T05:21:23.877Z,18.80
2023-01-29T05:24:12.043Z,17.80
2023-01-29T05:27:02.645Z,21.13
2023-01-29T05:29:32.381Z,20.15
2023-01-29T05:32:02.913Z,19.38
2023-01-29T05:34:32.292Z,21.02
2023-01-29T05:37:02.427Z,20.05
2023-01-29T05:39:33.551Z,20.55
2023-01-29T05:42:05.975Z,22.60
2023-01-29T05:44:35.524Z,21.10
2023-01-29T05:47:07.445Z,19.00
2023-01-29T05:49:38.677Z,20.73
2023-01-29T05:52:09.271Z,19.05
2023-01-29T05:54:40.147Z,20.50
2023-01-29T05:57:09.583Z,20.33
2023-01-29T05:59:39.219Z,20.17
2023-01-29T06:02:09.751Z,18.92
2023-01-29T06:04:39.220Z,21.17
2023-01-29T06:07:08.766Z,19.45
2023-01-29T06:09:39.483Z,20.58
2023-01-29T06:12:08.948Z,20.63
2023-01-29T06:14:38.374Z,20.00
2023-01-29T06:17:08.089Z,18.35
2023-01-29T06:19:37.253Z,18.95
2023-01-29T06:22:09.379Z,19.55
2023-01-29T06:24:39.832Z,21.77
2023-01-29T06:27:09.331Z,20.23
2023-01-29T06:29:40.843Z,19.23
2023-01-29T06:32:10.297Z,21.05
2023-01-29T06:34:41.835Z,19.83
2023-01-29T06:37:13.382Z,21.65
2023-01-29T06:39:44.336Z,20.25
2023-01-29T06:42:14.119Z,20.00
2023-01-29T06:44:43.648Z,20.98
2023-01-29T06:47:15.607Z,21.27
2023-01-29T06:49:44.889Z,21.42
2023-01-29T06:52:14.272Z,20.30
2023-01-29T06:54:45.368Z,21.45
2023-01-29T06:57:15.067Z,51.33
2023-01-29T06:59:44.500Z,34.33
2023-01-29T07:02:16.804Z,21.52
2023-01-29T07:04:46.682Z,20.13
2023-01-29T07:07:16.265Z,20.92
2023-01-29T07:09:46.960Z,21.83
2023-01-29T07:12:16.599Z,20.92
2023-01-29T07:14:45.599Z,19.38
2023-01-29T07:17:15.267Z,19.38
2023-01-29T07:19:44.807Z,19.02
2023-01-29T07:22:14.367Z,20.65
2023-01-29T07:24:43.803Z,18.85
2023-01-29T07:27:14.479Z,20.15
2023-01-29T07:29:44.196Z,21.88
2023-01-29T07:32:14.325Z,19.60
2023-01-29T07:34:43.604Z,20.48
2023-01-29T07:37:13.122Z,19.55
2023-01-29T07:39:42.413Z,20.77
2023-01-29T07:42:13.073Z,19.90
2023-01-29T07:44:42.322Z,20.23
2023-01-29T07:47:17.148Z,20.73
2023-01-29T07:49:47.035Z,21.98
2023-01-29T07:52:16.674Z,20.75
2023-01-29T07:54:46.243Z,20.63
2023-01-29T07:57:17.189Z,20.30
2023-01-29T07:59:46.791Z,19.30
2023-01-29T08:02:19.308Z,19.75
2023-01-29T08:04:48.701Z,19.23
2023-01-29T08:07:18.300Z,22.15
2023-01-29T08:09:50.511Z,21.05
2023-01-29T08:12:21.892Z,20.45
2023-01-29T08:14:51.401Z,20.27
2023-01-29T08:17:20.986Z,20.65
2023-01-29T08:19:50.795Z,21.52
2023-01-29T08:22:20.582Z,19.83
2023-01-29T08:24:54.359Z,22.63
2023-01-29T08:27:30.949Z,21.83
2023-01-29T08:30:00.748Z,19.85
2023-01-29T08:32:30.003Z,21.63
2023-01-29T08:34:59.877Z,20.95
2023-01-29T08:37:29.059Z,21.63
2023-01-29T08:39:58.484Z,20.13
2023-01-29T08:42:27.711Z,20.48
2023-01-29T08:44:58.959Z,20.38
2023-01-29T08:47:29.559Z,21.48
2023-01-29T08:49:59.454Z,20.70
2023-01-29T08:52:28.760Z,34.70
2023-01-29T08:54:58.161Z,25.95
2023-01-29T08:57:27.164Z,23.52
2023-01-29T08:59:56.483Z,21.50
2023-01-29T09:02:26.764Z,22.13
2023-01-29T09:04:56.001Z,22.45
2023-01-29T09:07:25.485Z,22.48
2023-01-29T09:09:56.944Z,20.50
2023-01-29T09:12:27.295Z,20.10
2023-01-29T09:14:56.603Z,21.58
2023-01-29T09:17:27.347Z,20.90
2023-01-29T09:19:56.561Z,19.98
2023-01-29T09:22:25.797Z,21.55
2023-01-29T09:24:55.332Z,21.33
2023-01-29T09:27:24.991Z,20.58
2023-01-29T09:29:54.208Z,22.45
2023-01-29T09:35:14.988Z,20.05
2023-01-29T09:37:44.576Z,21.35
2023-01-29T09:40:25.867Z,21.20
2023-01-29T09:43:00.221Z,20.48
2023-01-29T09:45:30.618Z,20.75
2023-01-29T09:48:02.627Z,23.80
2023-01-29T09:50:37.460Z,21.08
2023-01-29T09:53:16.957Z,21.27
2023-01-29T09:55:51.731Z,21.67
2023-01-29T09:58:25.837Z,21.95
2023-01-29T10:01:02.079Z,22.33
2023-01-29T10:03:56.070Z,22.05
2023-01-29T10:06:41.539Z,23.05
2023-01-29T10:09:49.413Z,22.95
2023-01-29T10:12:37.445Z,22.63
2023-01-29T10:15:22.843Z,24.15
2023-01-29T10:18:06.010Z,20.98
2023-01-29T10:21:06.224Z,23.10
2023-01-29T10:23:39.948Z,22.63
2023-01-29T10:26:13.758Z,22.15
2023-01-29T10:28:46.370Z,24.77
2023-01-29T10:31:21.110Z,24.95
2023-01-29T10:34:08.812Z,23.88
2023-01-29T10:36:43.005Z,24.23
2023-01-29T10:39:18.436Z,24.73
2023-01-29T10:42:07.741Z,24.40
2023-01-29T10:44:50.847Z,22.17
2023-01-29T10:47:34.752Z,25.70
2023-01-29T10:50:18.620Z,26.08
2023-01-29T10:53:06.164Z,26.50
2023-01-29T10:55:44.691Z,24.23
2023-01-29T10:58:24.556Z,24.15
2023-01-29T11:00:55.476Z,25.15
2023-01-29T11:03:28.951Z,25.67
2023-01-29T11:06:06.874Z,24.63
2023-01-29T11:08:42.000Z,26.30
2023-01-29T11:11:17.207Z,33.97
2023-01-29T11:13:54.289Z,31.10
2023-01-29T11:16:24.069Z,26.80
2023-01-29T11:18:56.552Z,26.00
2023-01-29T11:21:27.347Z,25.92
2023-01-29T11:26:40.861Z,24.10
2023-01-29T11:29:32.231Z,25.17
2023-01-29T11:32:05.041Z,24.92
2023-01-29T11:34:34.054Z,25.92
2023-01-29T11:37:04.647Z,25.73
2023-01-29T11:39:34.468Z,23.70
2023-01-29T11:42:08.600Z,26.45
2023-01-29T11:44:44.035Z,26.02
2023-01-29T11:47:20.214Z,24.75
2023-01-29T11:49:51.985Z,24.98
2023-01-29T11:52:26.070Z,25.67
2023-01-29T11:54:58.856Z,26.85
2023-01-29T11:57:33.635Z,25.90
2023-01-29T12:00:07.002Z,25.08
2023-01-29T12:02:43.363Z,24.58
2023-01-29T12:05:18.711Z,25.13
2023-01-29T12:07:51.178Z,24.58
2023-01-29T12:10:35.666Z,23.85
2023-01-29T12:13:27.766Z,24.50
2023-01-29T12:16:19.548Z,26.10
2023-01-29T12:18:54.635Z,24.40
2023-01-29T12:21:32.618Z,25.13
2023-01-29T12:24:12.897Z,27.48
2023-01-29T12:26:49.085Z,26.17
2023-01-29T12:29:27.187Z,26.40
2023-01-29T12:32:08.620Z,26.30
2023-01-29T12:34:46.491Z,26.05
2023-01-29T12:37:23.367Z,25.95
2023-01-29T12:39:53.816Z,25.77
2023-01-29T12:42:25.173Z,26.70
2023-01-29T12:45:00.683Z,27.52
2023-01-29T12:47:35.546Z,26.40
2023-01-29T12:50:09.526Z,26.58
2023-01-29T12:52:44.031Z,27.60
2023-01-29T12:55:19.396Z,25.55
2023-01-29T12:57:56.127Z,24.52
2023-01-29T13:00:29.495Z,24.90
2023-01-29T13:03:05.211Z,23.35
2023-01-29T13:05:40.132Z,22.85
2023-01-29T13:08:16.656Z,24.83
2023-01-29T13:10:51.150Z,23.08
2023-01-29T13:13:28.913Z,24.92
2023-01-29T13:16:01.552Z,23.42
2023-01-29T13:18:45.734Z,23.90
2023-01-29T13:21:17.471Z,23.40
2023-01-29T13:23:50.201Z,23.63
2023-01-29T13:26:21.087Z,22.10
2023-01-29T13:28:52.688Z,24.08
2023-01-29T13:31:36.365Z,23.65
2023-01-29T13:36:44.911Z,22.70
2023-01-29T13:39:26.336Z,23.05
2023-01-29T13:41:57.360Z,25.30
2023-01-29T13:44:29.626Z,21.92
2023-01-29T13:47:02.843Z,23.30
2023-01-29T13:49:36.483Z,25.38
2023-01-29T13:52:25.533Z,30.98
2023-01-29T13:55:00.627Z,25.45
2023-01-29T13:57:55.683Z,20.73
2023-01-29T14:01:02.725Z,22.85
2023-01-29T14:04:10.174Z,22.58
2023-01-29T14:06:46.086Z,21.80
2023-01-29T14:09:35.052Z,22.02
2023-01-29T14:12:05.773Z,21.92
2023-01-29T14:15:20.997Z,18.80
2023-01-29T14:18:20.804Z,19.85
2023-01-29T14:21:02.743Z,22.05
2023-01-29T14:23:37.994Z,19.17
2023-01-29T14:26:20.366Z,17.92
2023-01-29T14:28:57.922Z,19.10
2023-01-29T14:31:33.418Z,18.77
2023-01-29T14:34:05.141Z,20.52
2023-01-29T14:36:43.161Z,19.55
2023-01-29T14:39:24.801Z,19.38
2023-01-29T14:41:54.433Z,19.48
2023-01-29T14:44:58.337Z,19.63
2023-01-29T14:47:55.850Z,18.77
2023-01-29T14:51:09.614Z,18.10
2023-01-29T14:56:27.688Z,21.60
2023-01-29T14:59:06.468Z,17.95
2023-01-29T15:01:39.161Z,20.05
2023-01-29T15:04:19.397Z,19.95
2023-01-29T15:06:53.409Z,18.90
2023-01-29T15:09:36.907Z,19.30
2023-01-29T15:12:17.535Z,18.95
2023-01-29T15:14:57.937Z,20.30
2023-01-29T15:17:32.440Z,19.60
2023-01-29T15:20:02.036Z,20.80
2023-01-29T15:22:33.129Z,21.85
2023-01-29T15:25:15.193Z,20.60
2023-01-29T15:27:47.656Z,21.58
2023-01-29T15:30:20.232Z,19.88
2023-01-29T15:32:52.723Z,19.30
2023-01-29T15:35:29.727Z,21.02
2023-01-29T15:38:04.597Z,21.17
2023-01-29T15:40:35.938Z,21.35
2023-01-29T15:43:21.470Z,19.48
2023-01-29T15:45:51.748Z,19.15
2023-01-29T15:48:31.416Z,22.75
2023-01-29T15:51:05.247Z,21.25
2023-01-29T15:53:38.955Z,19.60
2023-01-29T15:56:12.929Z,19.30
2023-01-29T15:58:44.010Z,19.52
2023-01-29T16:01:14.432Z,20.70
2023-01-29T16:03:44.704Z,20.23
2023-01-29T16:06:14.334Z,19.50
2023-01-29T16:08:50.816Z,20.92
2023-01-29T16:11:22.369Z,20.13
2023-01-29T16:13:53.081Z,21.52
2023-01-29T16:16:26.090Z,22.80
2023-01-29T16:19:02.563Z,20.27
2023-01-29T16:21:35.346Z,21.25
2023-01-29T16:24:09.946Z,20.55
2023-01-29T16:26:44.782Z,21.88
2023-01-29T16:29:17.784Z,22.70
2023-01-29T16:31:49.770Z,22.50
2023-01-29T16:34:27.389Z,22.02
2023-01-29T16:36:57.780Z,22.00
2023-01-29T16:39:32.778Z,23.83
2023-01-29T16:42:31.735Z,22.38
2023-01-29T16:45:03.152Z,19.60
2023-01-29T16:47:36.173Z,23.08
2023-01-29T16:50:28.851Z,22.92
2023-01-29T16:52:59.137Z,23.42
2023-01-29T16:55:34.810Z,22.70
2023-01-29T16:58:13.652Z,25.73
2023-01-29T17:00:46.099Z,21.58
2023-01-29T17:03:17.160Z,21.58
2023-01-29T17:08:27.391Z,19.40
2023-01-29T17:10:57.499Z,22.10
2023-01-29T17:13:31.767Z,24.40
2023-01-29T17:16:04.607Z,21.52
2023-01-29T17:18:34.988Z,22.35
2023-01-29T17:21:05.402Z,21.83
2023-01-29T17:23:35.353Z,21.50
2023-01-29T17:26:07.523Z,22.30
2023-01-29T17:28:41.047Z,21.42
2023-01-29T17:31:11.511Z,25.60
2023-01-29T17:33:43.457Z,24.80
2023-01-29T17:36:18.374Z,25.10
2023-01-29T17:38:48.266Z,24.15
2023-01-29T17:41:24.351Z,24.55
2023-01-29T17:43:56.040Z,23.33
2023-01-29T17:46:28.519Z,24.02
2023-01-29T17:48:58.402Z,24.58
2023-01-29T17:51:27.955Z,24.00
2023-01-29T17:53:58.905Z,23.52
2023-01-29T17:56:30.323Z,22.85
2023-01-29T17:59:01.978Z,21.33
2023-01-29T18:01:31.243Z,21.75
2023-01-29T18:04:04.201Z,24.88
2023-01-29T18:06:34.027Z,41.47
2023-01-29T18:09:07.589Z,27.10
2023-01-29T18:11:36.854Z,24.95
2023-01-29T18:14:13.883Z,24.48
2023-01-29T18:16:45.254Z,24.98
2023-01-29T18:19:20.221Z,25.20
2023-01-29T18:21:49.972Z,24.58
2023-01-29T18:24:20.930Z,26.20
2023-01-29T18:26:51.433Z,26.42
2023-01-29T18:29:22.657Z,23.30
2023-01-29T18:31:53.385Z,24.50
2023-01-29T18:34:26.107Z,27.23
2023-01-29T18:36:59.490Z,24.13
2023-01-29T18:42:01.882Z,25.52
2023-01-29T18:44:33.074Z,28.23
2023-01-29T18:47:05.477Z,25.98
2023-01-29T18:49:39.262Z,26.70
2023-01-29T18:52:09.847Z,25.05
2023-01-29T18:54:39.648Z,23.77
2023-01-29T18:58:27.126Z,24.98
2023-01-29T19:00:00.558Z,24.20
2023-01-29T19:02:30.078Z,24.25
2023-01-29T19:04:59.423Z,22.48
2023-01-29T19:07:28.609Z,24.05
2023-01-29T19:09:58.020Z,21.75
2023-01-29T19:12:27.235Z,23.27
2023-01-29T19:14:57.072Z,24.85
2023-01-29T19:17:27.879Z,22.80
2023-01-29T19:20:02.466Z,22.67
2023-01-29T19:22:31.944Z,23.85
2023-01-29T19:25:01.685Z,22.90
2023-01-29T19:27:31.472Z,23.52
2023-01-29T19:30:01.880Z,22.67
2023-01-29T19:32:33.211Z,21.92
2023-01-29T19:35:02.344Z,21.98
2023-01-29T19:37:31.715Z,23.45
2023-01-29T19:40:01.336Z,22.70
2023-01-29T19:42:30.590Z,21.48
2023-01-29T19:45:06.105Z,24.75
2023-01-29T19:47:41.622Z,20.85
2023-01-29T19:50:12.797Z,22.85
2023-01-29T19:52:51.179Z,22.80
2023-01-29T19:55:22.571Z,23.40
2023-01-29T19:57:54.222Z,22.65
2023-01-29T20:00:24.843Z,24.77
2023-01-29T20:02:55.763Z,24.70
2023-01-29T20:05:27.229Z,22.10
2023-01-29T20:07:56.630Z,24.67
2023-01-29T20:10:28.210Z,24.20
2023-01-29T20:12:58.369Z,20.25
2023-01-29T20:15:27.802Z,20.90
2023-01-29T20:17:59.013Z,22.55
2023-01-29T20:20:31.093Z,24.48
2023-01-29T20:23:02.434Z,24.73
2023-01-29T20:25:32.075Z,24.40
2023-01-29T20:28:01.150Z,20.85
2023-01-29T20:30:30.998Z,24.58
2023-01-29T20:33:02.921Z,29.10
2023-01-29T20:35:32.680Z,33.35
2023-01-29T20:38:03.166Z,22.08
2023-01-29T20:40:32.887Z,23.50
2023-01-29T20:43:02.958Z,23.05
2023-01-29T20:45:33.113Z,21.83
2023-01-29T20:48:07.115Z,21.67
2023-01-29T20:50:38.826Z,20.40
2023-01-29T20:53:09.450Z,21.80
2023-01-29T20:55:39.782Z,19.42
2023-01-29T20:58:10.010Z,21.25
2023-01-29T21:00:40.229Z,22.00
2023-01-29T21:03:11.921Z,19.58
2023-01-29T21:05:44.762Z,19.88
2023-01-29T21:08:16.833Z,18.92
2023-01-29T21:10:50.754Z,18.77
2023-01-29T21:13:20.796Z,18.90
2023-01-29T21:15:51.566Z,18.77
2023-01-29T21:18:23.164Z,19.90
2023-01-29T21:20:53.917Z,22.40
2023-01-29T21:23:23.801Z,21.33
2023-01-29T21:25:53.650Z,22.88
2023-01-29T21:28:23.531Z,22.23
2023-01-29T21:31:02.888Z,19.40
2023-01-29T21:33:34.719Z,18.05
2023-01-29T21:36:05.549Z,16.80
2023-01-29T21:38:35.321Z,17.30
2023-01-29T21:41:07.105Z,18.35
2023-01-29T21:43:36.017Z,17.60
2023-01-29T21:46:11.679Z,18.63
2023-01-29T21:48:42.676Z,19.38
2023-01-29T21:51:13.042Z,18.45
2023-01-29T21:53:42.682Z,19.60
2023-01-29T21:56:19.591Z,23.55
2023-01-29T21:58:50.080Z,23.77
2023-01-29T22:01:37.360Z,23.05
2023-01-29T22:04:10.289Z,24.73
2023-01-29T22:06:39.450Z,23.83
2023-01-29T22:09:08.843Z,24.30
2023-01-29T22:11:38.453Z,24.35
2023-01-29T22:14:07.793Z,25.60
2023-01-29T22:16:37.246Z,24.08
2023-01-29T22:19:07.094Z,24.83
2023-01-29T22:21:37.552Z,22.83
2023-01-29T22:24:07.549Z,23.63
2023-01-29T22:26:37.318Z,24.98
2023-01-29T22:29:07.086Z,21.73
2023-01-29T22:31:36.597Z,22.83
2023-01-29T22:34:06.405Z,21.88
2023-01-29T22:36:37.116Z,18.92
2023-01-29T22:39:07.224Z,21.58
2023-01-29T22:41:37.053Z,21.63
2023-01-29T22:44:07.262Z,19.52
2023-01-29T22:46:36.881Z,20.42
2023-01-29T22:49:06.669Z,19.60
2023-01-29T22:51:37.499Z,19.58
2023-01-29T22:54:07.417Z,18.90
2023-01-29T22:56:36.743Z,17.00
2023-01-29T22:59:06.573Z,15.18
2023-01-29T23:01:35.883Z,13.15
2023-01-29T23:04:05.608Z,14.35
2023-01-29T23:06:35.052Z,13.98
2023-01-29T23:09:05.895Z,10.75
2023-01-29T23:11:35.786Z,10.27
2023-01-29T23:14:05.149Z,9.35
2023-01-29T23:16:34.641Z,10.20
2023-01-29T23:19:04.864Z,8.55
2023-01-29T23:21:34.500Z,8.20
2023-01-29T23:24:06.070Z,8.77
2023-01-29T23:26:52.833Z,7.60
2023-01-29T23:29:22.988Z,7.78
2023-01-29T23:31:52.872Z,9.35
2023-01-29T23:34:22.656Z,8.50
2023-01-29T23:36:51.967Z,8.05
2023-01-29T23:39:24.889Z,6.85
2023-01-29T23:41:54.528Z,7.38
2023-01-29T23:44:24.353Z,8.68
2023-01-29T23:46:53.728Z,6.97
2023-01-29T23:49:23.561Z,6.50
2023-01-29T23:51:53.678Z,6.30
2023-01-29T23:54:24.465Z,6.38
2023-01-29T23:56:56.501Z,7.00
2023-01-29T23:59:29.163Z,6.82
